• Join FlightAware (Why Join?)
  • Login
  • US Flag 
05:56AM EDT


 

Airport Tracker/Info


-or-


 

Live Flight TrackerFlight Track Log ✈ SWA208 ✈ 25-Sep-2013 ✈ KPHX - KSJC

Flight Track Log - Related Links

Times and Time Zones

All times are in EDT time to prevent confusion due to time zone crossing. See the SWA208 flight status page for this flight to view local times or setup timezone preferences in your user account.

Time Position Orientation Groundspeed Altitude Reporting Facility
EDT Latitude Longitude Course Direction KTS MPH feet Rate Location/Type
09:11AM 33.4333 -112.0000 90° East 133 153 1,900  Level Phoenix TRACON
09:13AM 33.4333 -111.9167 90° East 218 251 5,700 3,000 Climbing Phoenix TRACON
09:14AM 33.4189 -111.8467 104° East 246 283 8,700 2,880 Climbing Albuquerque Center
09:15AM 33.3608 -111.8531 185° South 260 299 11,800 2,760 Climbing Albuquerque Center
09:16AM 33.3631 -111.9533 272° West 311 358 14,400 2,760 Climbing Albuquerque Center
09:17AM 33.3764 -112.0692 278° West 349 402 17,400 3,000 Climbing Albuquerque Center
09:18AM 33.3892 -112.1919 277° West 367 422 20,500 2,940 Climbing Albuquerque Center
09:19AM 33.4022 -112.3197 277° West 382 440 23,400 2,580 Climbing Albuquerque Center
09:20AM 33.4158 -112.4497 277° West 392 451 25,800 2,460 Climbing Albuquerque Center
09:21AM 33.4319 -112.6103 277° West 402 463 28,400 2,280 Climbing Albuquerque Center
09:22AM 33.4456 -112.7472 277° West 408 470 30,400 2,160 Climbing Albuquerque Center
09:23AM 33.4633 -112.8839 279° West 412 474 32,800 2,220 Climbing Albuquerque Center
09:24AM 33.4894 -113.0144 284° West 411 473 35,000 2,040 Climbing Albuquerque Center
09:25AM 33.5139 -113.1381 283° West 397 457 37,100 1,860 Climbing Albuquerque Center
09:26AM 33.5367 -113.2603 283° West 385 443 38,800 1,380 Climbing Albuquerque Center
09:27AM 33.5592 -113.3806 283° West 376 433 40,000 540 Climbing Albuquerque Center
09:28AM 33.5828 -113.5008 283° West 373 429 40,000  Level Albuquerque Center
09:29AM 33.6042 -113.6200 282° West 370 426 40,000  Level Albuquerque Center
09:30AM 33.6275 -113.7422 283° West 367 422 40,000  Level Albuquerque Center
09:31AM 33.6517 -113.8594 284° West 364 419 40,000  Level Albuquerque Center
09:32AM 33.6756 -113.9781 284° West 366 421 40,000  Level Albuquerque Center
09:33AM 33.6989 -114.0969 283° West 367 422 40,000  Level Albuquerque Center
09:34AM 33.7261 -114.2342 283° West 365 420 40,000  Level Albuquerque Center
09:35AM 33.7508 -114.3525 284° West 366 421 40,000  Level Albuquerque Center
09:36AM 33.7744 -114.4692 284° West 367 422 40,000  Level Los Angeles Center
09:37AM 33.7975 -114.5889 283° West 369 425 40,000  Level Los Angeles Center
09:38AM 33.8269 -114.7344 284° West 373 429 40,000  Level Los Angeles Center
09:39AM 33.8500 -114.8569 283° West 376 433 40,000  Level Los Angeles Center
09:40AM 33.8753 -114.9794 284° West 377 434 40,000  Level Los Angeles Center
09:41AM 33.8975 -115.1008 282° West 375 432 40,000  Level Los Angeles Center
09:42AM 33.9214 -115.2239 283° West 377 434 40,000  Level Los Angeles Center
09:43AM 33.9453 -115.3458 283° West 377 434 40,000  Level Los Angeles Center
09:44AM 33.9678 -115.4683 283° West 376 433 40,000  Level Los Angeles Center
09:45AM 33.9906 -115.5892 283° West 374 430 40,000  Level Los Angeles Center
09:46AM 34.0136 -115.7089 283° West 371 427 40,000  Level Los Angeles Center
09:47AM 34.0408 -115.8544 283° West 372 428 40,000  Level Los Angeles Center
09:48AM 34.0633 -115.9736 283° West 369 425 40,000  Level Los Angeles Center
09:49AM 34.0844 -116.0947 282° West 370 426 40,000  Level Los Angeles Center
09:50AM 34.1064 -116.2150 282° West 370 426 40,000  Level Los Angeles Center
09:51AM 34.1283 -116.3347 283° West 368 423 40,000  Level Los Angeles Center
09:52AM 34.1506 -116.4578 282° West 370 426 40,000  Level Los Angeles Center
09:53AM 34.1725 -116.5814 282° West 375 432 40,000  Level Los Angeles Center
09:54AM 34.1944 -116.7031 282° West 372 428 40,000  Level Los Angeles Center
09:55AM 34.2156 -116.8222 282° West 366 421 40,000  Level Los Angeles Center
09:56AM 34.2358 -116.9431 282° West 366 421 40,000  Level Los Angeles Center
09:57AM 34.2628 -117.0922 282° West 374 430 40,000  Level Los Angeles Center
09:59AM 34.2803 -117.1881 282° West 378 435 40,000  Level Los Angeles Center
10:00AM 34.3056 -117.3336 282° West 374 430 40,000  Level Los Angeles Center
10:01AM 34.3214 -117.4314 281° West 373 429 40,000  Level Los Angeles Center
10:02AM 34.3472 -117.5775 282° West 372 428 40,000  Level Los Angeles Center
10:03AM 34.3986 -117.6978 297° West 388 447 40,000  Level Los Angeles Center
10:04AM 34.4531 -117.8094 301° West 385 443 40,000  Level Los Angeles Center
10:05AM 34.5092 -117.9214 301° West 387 445 40,000  Level Los Angeles Center
10:06AM 34.5758 -118.0556 301° West 386 444 40,000  Level Los Angeles Center
10:07AM 34.6358 -118.1742 302° West 378 435 40,000  Level Los Angeles Center
10:08AM 34.6947 -118.2983 300° West 384 442 40,000  Level Los Angeles Center
10:09AM 34.7497 -118.4089 301° West 383 441 40,000  Level Los Angeles Center
10:10AM 34.8069 -118.5239 301° West 371 427 40,000  Level Los Angeles Center
10:11AM 34.8586 -118.6319 300° West 372 428 40,000  Level Los Angeles Center
10:12AM 34.9072 -118.7311 301° West 373 429 40,000  Level Los Angeles Center
10:13AM 34.9608 -118.8400 301° West 374 430 40,000  Level Los Angeles Center
10:14AM 35.0036 -118.9269 301° West 374 430 40,000  Level Los Angeles Center
10:15AM 35.0778 -119.0819 300° West 376 433 40,000  Level Los Angeles Center
10:16AM 35.1319 -119.1939 301° West 379 436 40,000  Level Los Angeles Center
10:17AM 35.1858 -119.3058 301° West 382 440 40,000  Level Los Angeles Center
10:18AM 35.2403 -119.4183 301° West 384 442 40,000  Level Los Angeles Center
10:19AM 35.2950 -119.5308 301° West 385 443 40,000  Level Los Angeles Center
10:20AM 35.3472 -119.6436 300° West 384 442 40,000  Level Los Angeles Center
10:21AM 35.4117 -119.7781 300° West 383 441 40,000  Level Los Angeles Center
10:22AM 35.4656 -119.8908 300° West 383 441 40,000  Level Los Angeles Center
10:23AM 35.5178 -120.0042 300° West 385 443 40,000  Level Los Angeles Center
10:24AM 35.5706 -120.1158 300° West 384 442 40,000  Level Los Angeles Center
10:25AM 35.6233 -120.2294 300° West 384 442 40,000  Level Los Angeles Center
10:26AM 35.6856 -120.3642 300° West 387 445 40,000  Level Los Angeles Center
10:27AM 35.7519 -120.4656 309° West 389 448 40,000  Level Los Angeles Center
10:29AM 35.8233 -120.5597 313° West 381 438 40,000 -420 Level Los Angeles Center
10:30AM 35.8953 -120.6572 312° West 384 442 39,200 -900 Descending Los Angeles Center
10:31AM 35.9669 -120.7544 312° West 384 442 38,200 -1,800 Descending Los Angeles Center
10:32AM 36.0367 -120.8481 313° West 370 426 35,600 -3,000 Descending Los Angeles Center
10:33AM 36.1481 -120.9997 312° West 373 429 30,900 -2,940 Descending Oakland Center
10:34AM 36.2147 -121.0908 312° West 364 419 28,500 -2,340 Descending Oakland Center
10:35AM 36.2792 -121.1792 312° West 350 403 26,200 -2,340 Descending Oakland Center
10:36AM 36.3464 -121.2675 313° West 350 403 23,800 -2,340 Descending Oakland Center
10:37AM 36.4075 -121.3536 311° West 337 388 21,500 -2,400 Descending Oakland Center
10:38AM 36.4719 -121.4314 316° Northwest 325 374 19,000 -1,800 Descending Oakland Center
10:39AM 36.5669 -121.4500 351° North 337 388 17,900 -1,500 Descending Oakland Center
10:40AM 36.6561 -121.4725 349° North 328 377 16,000 -1,920 Descending Oakland Center
10:41AM 36.7417 -121.4942 349° North 318 366 14,000 -2,040 Descending Oakland Center
10:42AM 36.8292 -121.5178 348° North 310 357 11,900 -1,800 Descending Oakland Center
10:43AM 36.9106 -121.5411 347° North 304 350 10,400 -1,620 Descending Oakland Center
10:44AM 36.9711 -121.5869 329° Northwest 264 304 8,700 -1,740 Descending Oakland Center
10:45AM 37.0489 -121.6400 331° Northwest 263 303 6,900 -1,680 Descending Oakland Center
10:46AM 37.1094 -121.6797 332° Northwest 250 288 5,400 -1,020 Descending Oakland Center
10:47AM 37.1667 -121.7186 332° Northwest 238 274 4,900 -840 Descending Oakland Center
10:48AM 37.2117 -121.7636 321° Northwest 221 254 3,800 -1,140 Descending Oakland Center
10:49AM 37.2533 -121.8117 317° Northwest 211 243 2,700 -1,080 Descending Oakland Center
10:50AM 37.2897 -121.8517 319° Northwest 191 220 1,700 -840 Descending Oakland Center
10:51AM 37.3186 -121.8842 318° Northwest 158 182 1,000 -720 Descending Oakland Center
10:52AM 37.3439 -121.9106 320° Northwest 136 157 300 -720 Descending Oakland Center
10:54AM 37.3500 -121.9167 North  Level FlightAware Approximate
11:01AM 37.3627 -121.9291 North  Level Estimated